sensor_id;sensor_type;location;lat;lon;timestamp;P1;durP1;ratioP1;P2;durP2;ratioP2
20505;SDS011;10411;48.148;7.704;2022-08-03T00:01:17;21.30;;;20.10;;
20505;SDS011;10411;48.148;7.704;2022-08-03T00:03:42;21.50;;;20.10;;
20505;SDS011;10411;48.148;7.704;2022-08-03T00:06:08;21.27;;;19.97;;
20505;SDS011;10411;48.148;7.704;2022-08-03T00:08:34;21.07;;;19.77;;
20505;SDS011;10411;48.148;7.704;2022-08-03T00:11:00;21.57;;;20.07;;
20505;SDS011;10411;48.148;7.704;2022-08-03T00:13:26;21.57;;;20.17;;
20505;SDS011;10411;48.148;7.704;2022-08-03T00:15:53;21.17;;;19.87;;
20505;SDS011;10411;48.148;7.704;2022-08-03T00:18:19;21.27;;;19.87;;
20505;SDS011;10411;48.148;7.704;2022-08-03T00:20:45;22.13;;;20.73;;
20505;SDS011;10411;48.148;7.704;2022-08-03T00:23:11;21.00;;;19.80;;
20505;SDS011;10411;48.148;7.704;2022-08-03T00:25:37;21.50;;;20.20;;
20505;SDS011;10411;48.148;7.704;2022-08-03T00:28:03;22.00;;;20.30;;
20505;SDS011;10411;48.148;7.704;2022-08-03T00:30:30;21.97;;;20.43;;
20505;SDS011;10411;48.148;7.704;2022-08-03T00:32:56;22.90;;;21.30;;
20505;SDS011;10411;48.148;7.704;2022-08-03T00:35:23;22.57;;;21.03;;
20505;SDS011;10411;48.148;7.704;2022-08-03T00:37:49;22.40;;;20.80;;
20505;SDS011;10411;48.148;7.704;2022-08-03T00:40:15;21.70;;;20.20;;
20505;SDS011;10411;48.148;7.704;2022-08-03T00:45:17;21.43;;;19.90;;
20505;SDS011;10411;48.148;7.704;2022-08-03T00:47:44;22.23;;;20.67;;
20505;SDS011;10411;48.148;7.704;2022-08-03T00:50:10;22.07;;;20.40;;
20505;SDS011;10411;48.148;7.704;2022-08-03T00:52:36;21.60;;;20.27;;
20505;SDS011;10411;48.148;7.704;2022-08-03T00:55:02;20.80;;;19.60;;
20505;SDS011;10411;48.148;7.704;2022-08-03T00:57:29;21.47;;;20.00;;
20505;SDS011;10411;48.148;7.704;2022-08-03T00:59:55;21.23;;;19.93;;
20505;SDS011;10411;48.148;7.704;2022-08-03T01:02:21;21.30;;;20.00;;
20505;SDS011;10411;48.148;7.704;2022-08-03T01:04:47;21.60;;;20.20;;
20505;SDS011;10411;48.148;7.704;2022-08-03T01:09:49;21.60;;;20.20;;
20505;SDS011;10411;48.148;7.704;2022-08-03T01:14:57;22.63;;;20.93;;
20505;SDS011;10411;48.148;7.704;2022-08-03T01:17:27;21.90;;;20.50;;
20505;SDS011;10411;48.148;7.704;2022-08-03T01:20:01;21.80;;;20.37;;
20505;SDS011;10411;48.148;7.704;2022-08-03T01:30:18;22.40;;;21.00;;
20505;SDS011;10411;48.148;7.704;2022-08-03T01:32:48;22.27;;;20.87;;
20505;SDS011;10411;48.148;7.704;2022-08-03T01:35:24;22.33;;;20.93;;
20505;SDS011;10411;48.148;7.704;2022-08-03T01:38:00;21.90;;;20.60;;
20505;SDS011;10411;48.148;7.704;2022-08-03T01:40:27;22.20;;;20.80;;
20505;SDS011;10411;48.148;7.704;2022-08-03T01:42:55;21.57;;;20.17;;
20505;SDS011;10411;48.148;7.704;2022-08-03T01:45:22;20.57;;;19.30;;
20505;SDS011;10411;48.148;7.704;2022-08-03T01:47:49;21.03;;;19.57;;
20505;SDS011;10411;48.148;7.704;2022-08-03T01:50:18;21.13;;;19.77;;
20505;SDS011;10411;48.148;7.704;2022-08-03T01:52:45;20.83;;;19.60;;
20505;SDS011;10411;48.148;7.704;2022-08-03T01:55:12;21.17;;;19.63;;
20505;SDS011;10411;48.148;7.704;2022-08-03T01:57:39;20.33;;;19.13;;
20505;SDS011;10411;48.148;7.704;2022-08-03T02:00:07;20.77;;;19.47;;
20505;SDS011;10411;48.148;7.704;2022-08-03T02:02:34;20.33;;;19.13;;
20505;SDS011;10411;48.148;7.704;2022-08-03T02:05:02;20.47;;;19.20;;
20505;SDS011;10411;48.148;7.704;2022-08-03T02:07:29;20.77;;;19.57;;
20505;SDS011;10411;48.148;7.704;2022-08-03T02:09:59;21.13;;;19.83;;
20505;SDS011;10411;48.148;7.704;2022-08-03T02:12:29;20.77;;;19.57;;
20505;SDS011;10411;48.148;7.704;2022-08-03T02:14:56;21.40;;;19.73;;
20505;SDS011;10411;48.148;7.704;2022-08-03T02:17:24;21.57;;;19.97;;
20505;SDS011;10411;48.148;7.704;2022-08-03T02:19:50;21.30;;;20.00;;
20505;SDS011;10411;48.148;7.704;2022-08-03T02:22:17;21.30;;;20.00;;
20505;SDS011;10411;48.148;7.704;2022-08-03T02:24:43;20.77;;;19.57;;
20505;SDS011;10411;48.148;7.704;2022-08-03T02:27:30;21.07;;;19.77;;
20505;SDS011;10411;48.148;7.704;2022-08-03T02:29:57;21.40;;;20.13;;
20505;SDS011;10411;48.148;7.704;2022-08-03T02:32:30;21.33;;;20.03;;
20505;SDS011;10411;48.148;7.704;2022-08-03T02:34:57;21.13;;;19.83;;
20505;SDS011;10411;48.148;7.704;2022-08-03T02:37:25;21.23;;;19.97;;
20505;SDS011;10411;48.148;7.704;2022-08-03T02:39:52;21.33;;;19.83;;
20505;SDS011;10411;48.148;7.704;2022-08-03T02:42:20;21.80;;;20.30;;
20505;SDS011;10411;48.148;7.704;2022-08-03T02:44:47;21.53;;;19.73;;
20505;SDS011;10411;48.148;7.704;2022-08-03T02:47:13;21.47;;;20.00;;
20505;SDS011;10411;48.148;7.704;2022-08-03T02:49:40;21.50;;;20.10;;
20505;SDS011;10411;48.148;7.704;2022-08-03T02:52:09;22.10;;;20.50;;
20505;SDS011;10411;48.148;7.704;2022-08-03T02:54:36;21.37;;;19.87;;
20505;SDS011;10411;48.148;7.704;2022-08-03T02:57:02;21.03;;;19.50;;
20505;SDS011;10411;48.148;7.704;2022-08-03T02:59:29;21.33;;;19.90;;
20505;SDS011;10411;48.148;7.704;2022-08-03T03:01:56;21.53;;;20.13;;
20505;SDS011;10411;48.148;7.704;2022-08-03T03:04:23;21.33;;;20.00;;
20505;SDS011;10411;48.148;7.704;2022-08-03T03:06:51;21.80;;;20.30;;
20505;SDS011;10411;48.148;7.704;2022-08-03T03:09:17;21.20;;;19.80;;
20505;SDS011;10411;48.148;7.704;2022-08-03T03:11:43;21.70;;;20.23;;
20505;SDS011;10411;48.148;7.704;2022-08-03T03:14:10;21.23;;;19.90;;
20505;SDS011;10411;48.148;7.704;2022-08-03T03:16:37;22.20;;;20.60;;
20505;SDS011;10411;48.148;7.704;2022-08-03T03:19:03;21.37;;;20.07;;
20505;SDS011;10411;48.148;7.704;2022-08-03T03:21:30;21.40;;;20.00;;
20505;SDS011;10411;48.148;7.704;2022-08-03T03:23:56;21.07;;;19.77;;
20505;SDS011;10411;48.148;7.704;2022-08-03T03:26:23;21.10;;;19.60;;
20505;SDS011;10411;48.148;7.704;2022-08-03T03:28:49;21.97;;;20.40;;
20505;SDS011;10411;48.148;7.704;2022-08-03T03:31:15;21.83;;;20.23;;
20505;SDS011;10411;48.148;7.704;2022-08-03T03:33:41;21.30;;;19.90;;
20505;SDS011;10411;48.148;7.704;2022-08-03T03:36:07;22.13;;;20.53;;
20505;SDS011;10411;48.148;7.704;2022-08-03T03:38:33;21.50;;;20.00;;
20505;SDS011;10411;48.148;7.704;2022-08-03T03:40:59;21.50;;;20.10;;
20505;SDS011;10411;48.148;7.704;2022-08-03T03:43:26;20.73;;;19.43;;
20505;SDS011;10411;48.148;7.704;2022-08-03T03:45:53;21.63;;;20.13;;
20505;SDS011;10411;48.148;7.704;2022-08-03T03:48:19;21.67;;;20.03;;
20505;SDS011;10411;48.148;7.704;2022-08-03T03:50:45;21.93;;;20.43;;
20505;SDS011;10411;48.148;7.704;2022-08-03T03:53:12;22.30;;;20.90;;
20505;SDS011;10411;48.148;7.704;2022-08-03T03:55:38;21.53;;;20.13;;
20505;SDS011;10411;48.148;7.704;2022-08-03T03:58:05;22.43;;;20.93;;
20505;SDS011;10411;48.148;7.704;2022-08-03T04:00:31;22.80;;;21.30;;
20505;SDS011;10411;48.148;7.704;2022-08-03T04:02:57;23.00;;;21.50;;
20505;SDS011;10411;48.148;7.704;2022-08-03T04:05:23;23.13;;;21.63;;
20505;SDS011;10411;48.148;7.704;2022-08-03T04:08:13;22.67;;;21.20;;
20505;SDS011;10411;48.148;7.704;2022-08-03T04:13:37;32.37;;;21.67;;
20505;SDS011;10411;48.148;7.704;2022-08-03T04:16:04;22.77;;;21.10;;
20505;SDS011;10411;48.148;7.704;2022-08-03T04:18:32;22.83;;;21.07;;
20505;SDS011;10411;48.148;7.704;2022-08-03T04:21:00;23.53;;;21.50;;
20505;SDS011;10411;48.148;7.704;2022-08-03T04:23:27;23.97;;;22.17;;
20505;SDS011;10411;48.148;7.704;2022-08-03T04:25:55;23.10;;;21.37;;
20505;SDS011;10411;48.148;7.704;2022-08-03T04:28:22;22.73;;;21.33;;
20505;SDS011;10411;48.148;7.704;2022-08-03T04:30:48;23.03;;;21.53;;
20505;SDS011;10411;48.148;7.704;2022-08-03T04:33:16;23.30;;;21.70;;
20505;SDS011;10411;48.148;7.704;2022-08-03T04:35:42;22.70;;;21.00;;
20505;SDS011;10411;48.148;7.704;2022-08-03T04:38:09;23.13;;;21.37;;
20505;SDS011;10411;48.148;7.704;2022-08-03T04:40:39;23.20;;;21.77;;
20505;SDS011;10411;48.148;7.704;2022-08-03T04:43:06;23.20;;;21.27;;
20505;SDS011;10411;48.148;7.704;2022-08-03T04:45:32;20.83;;;19.63;;
20505;SDS011;10411;48.148;7.704;2022-08-03T04:47:59;21.47;;;20.13;;
20505;SDS011;10411;48.148;7.704;2022-08-03T04:50:25;20.77;;;19.47;;
20505;SDS011;10411;48.148;7.704;2022-08-03T04:52:52;21.67;;;20.10;;
20505;SDS011;10411;48.148;7.704;2022-08-03T04:55:31;20.90;;;19.60;;
20505;SDS011;10411;48.148;7.704;2022-08-03T04:57:57;21.17;;;19.77;;
20505;SDS011;10411;48.148;7.704;2022-08-03T05:00:24;20.93;;;19.63;;
20505;SDS011;10411;48.148;7.704;2022-08-03T05:02:50;20.57;;;19.37;;
20505;SDS011;10411;48.148;7.704;2022-08-03T05:05:17;21.40;;;19.80;;
20505;SDS011;10411;48.148;7.704;2022-08-03T05:07:43;20.73;;;19.23;;
20505;SDS011;10411;48.148;7.704;2022-08-03T05:10:10;20.33;;;18.97;;
20505;SDS011;10411;48.148;7.704;2022-08-03T05:12:36;19.73;;;18.63;;
20505;SDS011;10411;48.148;7.704;2022-08-03T05:15:02;20.77;;;19.23;;
20505;SDS011;10411;48.148;7.704;2022-08-03T05:17:28;21.27;;;19.87;;
20505;SDS011;10411;48.148;7.704;2022-08-03T05:19:54;33.37;;;31.27;;
20505;SDS011;10411;48.148;7.704;2022-08-03T05:22:21;31.23;;;29.13;;
20505;SDS011;10411;48.148;7.704;2022-08-03T05:24:47;25.00;;;23.50;;
20505;SDS011;10411;48.148;7.704;2022-08-03T05:27:13;21.25;;;20.05;;
20505;SDS011;10411;48.148;7.704;2022-08-03T05:29:43;20.83;;;19.63;;
20505;SDS011;10411;48.148;7.704;2022-08-03T05:34:45;21.10;;;19.42;;
20505;SDS011;10411;48.148;7.704;2022-08-03T05:37:11;21.17;;;19.52;;
20505;SDS011;10411;48.148;7.704;2022-08-03T05:39:37;20.80;;;19.50;;
20505;SDS011;10411;48.148;7.704;2022-08-03T05:42:03;19.63;;;18.52;;
20505;SDS011;10411;48.148;7.704;2022-08-03T05:44:29;20.05;;;18.75;;
20505;SDS011;10411;48.148;7.704;2022-08-03T05:46:55;19.77;;;18.48;;
20505;SDS011;10411;48.148;7.704;2022-08-03T05:49:21;20.02;;;18.42;;
20505;SDS011;10411;48.148;7.704;2022-08-03T05:51:47;19.83;;;18.52;;
20505;SDS011;10411;48.148;7.704;2022-08-03T05:54:13;22.73;;;21.23;;
20505;SDS011;10411;48.148;7.704;2022-08-03T05:56:39;21.13;;;19.58;;
20505;SDS011;10411;48.148;7.704;2022-08-03T05:59:06;22.42;;;20.70;;
20505;SDS011;10411;48.148;7.704;2022-08-03T06:01:32;22.15;;;20.80;;
20505;SDS011;10411;48.148;7.704;2022-08-03T06:03:58;21.63;;;20.15;;
20505;SDS011;10411;48.148;7.704;2022-08-03T06:06:24;21.98;;;20.38;;
20505;SDS011;10411;48.148;7.704;2022-08-03T06:08:50;21.80;;;20.40;;
20505;SDS011;10411;48.148;7.704;2022-08-03T06:11:16;21.25;;;19.95;;
20505;SDS011;10411;48.148;7.704;2022-08-03T06:13:42;22.77;;;21.38;;
20505;SDS011;10411;48.148;7.704;2022-08-03T06:16:08;21.98;;;20.60;;
20505;SDS011;10411;48.148;7.704;2022-08-03T06:21:19;22.85;;;21.10;;
20505;SDS011;10411;48.148;7.704;2022-08-03T06:23:45;22.08;;;20.65;;
20505;SDS011;10411;48.148;7.704;2022-08-03T06:26:11;22.13;;;20.75;;
20505;SDS011;10411;48.148;7.704;2022-08-03T06:28:37;21.90;;;20.45;;
20505;SDS011;10411;48.148;7.704;2022-08-03T06:33:39;21.40;;;20.00;;
20505;SDS011;10411;48.148;7.704;2022-08-03T06:36:05;23.20;;;21.60;;
20505;SDS011;10411;48.148;7.704;2022-08-03T06:38:31;22.48;;;20.92;;
20505;SDS011;10411;48.148;7.704;2022-08-03T06:40:57;22.50;;;21.00;;
20505;SDS011;10411;48.148;7.704;2022-08-03T06:43:23;22.75;;;21.25;;
20505;SDS011;10411;48.148;7.704;2022-08-03T06:45:49;23.15;;;21.55;;
20505;SDS011;10411;48.148;7.704;2022-08-03T06:48:15;23.17;;;21.48;;
20505;SDS011;10411;48.148;7.704;2022-08-03T06:50:41;23.63;;;21.77;;
20505;SDS011;10411;48.148;7.704;2022-08-03T06:53:08;22.80;;;21.30;;
20505;SDS011;10411;48.148;7.704;2022-08-03T06:55:34;23.73;;;21.80;;
20505;SDS011;10411;48.148;7.704;2022-08-03T06:58:00;24.17;;;22.38;;
20505;SDS011;10411;48.148;7.704;2022-08-03T07:00:26;22.55;;;21.15;;
20505;SDS011;10411;48.148;7.704;2022-08-03T07:02:52;23.10;;;21.60;;
20505;SDS011;10411;48.148;7.704;2022-08-03T07:05:19;21.63;;;20.02;;
20505;SDS011;10411;48.148;7.704;2022-08-03T07:07:45;22.13;;;20.17;;
20505;SDS011;10411;48.148;7.704;2022-08-03T07:10:11;22.92;;;21.33;;
20505;SDS011;10411;48.148;7.704;2022-08-03T07:12:37;23.38;;;21.83;;
20505;SDS011;10411;48.148;7.704;2022-08-03T07:15:04;22.92;;;21.20;;
20505;SDS011;10411;48.148;7.704;2022-08-03T07:17:32;23.55;;;21.80;;
20505;SDS011;10411;48.148;7.704;2022-08-03T07:19:58;24.77;;;22.98;;
20505;SDS011;10411;48.148;7.704;2022-08-03T07:22:24;23.02;;;21.42;;
20505;SDS011;10411;48.148;7.704;2022-08-03T07:24:50;22.98;;;21.30;;
20505;SDS011;10411;48.148;7.704;2022-08-03T07:27:16;21.88;;;20.58;;
20505;SDS011;10411;48.148;7.704;2022-08-03T07:29:42;22.20;;;20.63;;
20505;SDS011;10411;48.148;7.704;2022-08-03T07:32:08;22.17;;;20.67;;
20505;SDS011;10411;48.148;7.704;2022-08-03T07:34:34;21.40;;;20.02;;
20505;SDS011;10411;48.148;7.704;2022-08-03T07:37:00;22.08;;;20.23;;
20505;SDS011;10411;48.148;7.704;2022-08-03T07:39:26;21.23;;;19.60;;
20505;SDS011;10411;48.148;7.704;2022-08-03T07:41:52;21.00;;;19.63;;
20505;SDS011;10411;48.148;7.704;2022-08-03T07:44:18;21.25;;;19.85;;
20505;SDS011;10411;48.148;7.704;2022-08-03T07:46:44;22.00;;;20.30;;
20505;SDS011;10411;48.148;7.704;2022-08-03T07:49:10;20.70;;;19.30;;
20505;SDS011;10411;48.148;7.704;2022-08-03T07:51:36;21.58;;;19.95;;
20505;SDS011;10411;48.148;7.704;2022-08-03T07:54:02;21.35;;;19.73;;
20505;SDS011;10411;48.148;7.704;2022-08-03T07:56:28;20.35;;;19.05;;
20505;SDS011;10411;48.148;7.704;2022-08-03T07:58:54;20.50;;;19.10;;
20505;SDS011;10411;48.148;7.704;2022-08-03T08:01:21;20.20;;;19.00;;
20505;SDS011;10411;48.148;7.704;2022-08-03T08:03:47;20.17;;;18.70;;
20505;SDS011;10411;48.148;7.704;2022-08-03T08:06:13;19.75;;;18.55;;
20505;SDS011;10411;48.148;7.704;2022-08-03T08:08:40;18.20;;;16.85;;
20505;SDS011;10411;48.148;7.704;2022-08-03T08:11:06;18.90;;;17.60;;
20505;SDS011;10411;48.148;7.704;2022-08-03T08:13:32;18.92;;;17.75;;
20505;SDS011;10411;48.148;7.704;2022-08-03T08:15:58;18.50;;;17.35;;
20505;SDS011;10411;48.148;7.704;2022-08-03T08:18:24;19.02;;;17.80;;
20505;SDS011;10411;48.148;7.704;2022-08-03T08:20:53;18.88;;;17.60;;
20505;SDS011;10411;48.148;7.704;2022-08-03T08:23:19;19.15;;;18.02;;
20505;SDS011;10411;48.148;7.704;2022-08-03T08:25:51;18.88;;;17.67;;
20505;SDS011;10411;48.148;7.704;2022-08-03T08:28:17;19.33;;;18.13;;
20505;SDS011;10411;48.148;7.704;2022-08-03T08:30:43;19.55;;;18.45;;
20505;SDS011;10411;48.148;7.704;2022-08-03T08:33:10;19.38;;;18.17;;
20505;SDS011;10411;48.148;7.704;2022-08-03T08:35:36;19.80;;;18.50;;
20505;SDS011;10411;48.148;7.704;2022-08-03T08:38:02;20.60;;;19.20;;
20505;SDS011;10411;48.148;7.704;2022-08-03T08:40:28;20.30;;;19.10;;
20505;SDS011;10411;48.148;7.704;2022-08-03T08:42:54;20.58;;;19.27;;
20505;SDS011;10411;48.148;7.704;2022-08-03T08:45:20;20.70;;;19.20;;
20505;SDS011;10411;48.148;7.704;2022-08-03T08:47:47;21.50;;;20.13;;
20505;SDS011;10411;48.148;7.704;2022-08-03T08:50:17;22.55;;;21.25;;
20505;SDS011;10411;48.148;7.704;2022-08-03T08:52:45;26.05;;;24.45;;
20505;SDS011;10411;48.148;7.704;2022-08-03T08:55:12;26.95;;;25.45;;
20505;SDS011;10411;48.148;7.704;2022-08-03T08:57:43;27.10;;;25.50;;
20505;SDS011;10411;48.148;7.704;2022-08-03T09:00:10;28.67;;;27.08;;
20505;SDS011;10411;48.148;7.704;2022-08-03T09:02:38;29.95;;;27.95;;
20505;SDS011;10411;48.148;7.704;2022-08-03T09:05:06;29.17;;;27.58;;
20505;SDS011;10411;48.148;7.704;2022-08-03T09:07:35;31.58;;;29.58;;
20505;SDS011;10411;48.148;7.704;2022-08-03T09:10:01;31.20;;;29.40;;
20505;SDS011;10411;48.148;7.704;2022-08-03T09:12:27;34.17;;;32.33;;
20505;SDS011;10411;48.148;7.704;2022-08-03T09:14:53;34.95;;;32.85;;
20505;SDS011;10411;48.148;7.704;2022-08-03T09:17:19;36.10;;;34.03;;
20505;SDS011;10411;48.148;7.704;2022-08-03T09:22:31;36.53;;;34.47;;
20505;SDS011;10411;48.148;7.704;2022-08-03T09:25:04;35.10;;;33.20;;
20505;SDS011;10411;48.148;7.704;2022-08-03T09:27:44;36.22;;;34.15;;
20505;SDS011;10411;48.148;7.704;2022-08-03T09:30:13;36.95;;;34.92;;
20505;SDS011;10411;48.148;7.704;2022-08-03T09:32:40;36.22;;;34.38;;
20505;SDS011;10411;48.148;7.704;2022-08-03T09:35:06;37.08;;;34.97;;
20505;SDS011;10411;48.148;7.704;2022-08-03T09:37:32;37.25;;;34.90;;
20505;SDS011;10411;48.148;7.704;2022-08-03T09:39:58;38.95;;;36.85;;
20505;SDS011;10411;48.148;7.704;2022-08-03T09:42:24;39.00;;;36.80;;
20505;SDS011;10411;48.148;7.704;2022-08-03T09:44:51;40.70;;;38.35;;
20505;SDS011;10411;48.148;7.704;2022-08-03T09:47:27;40.42;;;38.33;;
20505;SDS011;10411;48.148;7.704;2022-08-03T09:52:28;37.28;;;35.28;;
20505;SDS011;10411;48.148;7.704;2022-08-03T09:54:55;30.13;;;28.58;;
20505;SDS011;10411;48.148;7.704;2022-08-03T09:57:25;21.25;;;20.05;;
20505;SDS011;10411;48.148;7.704;2022-08-03T09:59:51;19.15;;;18.00;;
20505;SDS011;10411;48.148;7.704;2022-08-03T10:02:21;19.83;;;18.67;;
20505;SDS011;10411;48.148;7.704;2022-08-03T10:04:48;21.95;;;20.55;;
20505;SDS011;10411;48.148;7.704;2022-08-03T10:07:16;21.33;;;20.02;;
20505;SDS011;10411;48.148;7.704;2022-08-03T10:09:58;22.55;;;20.75;;
20505;SDS011;10411;48.148;7.704;2022-08-03T10:12:25;22.38;;;20.88;;
20505;SDS011;10411;48.148;7.704;2022-08-03T10:14:52;22.30;;;20.80;;
20505;SDS011;10411;48.148;7.704;2022-08-03T10:17:18;21.67;;;20.38;;
20505;SDS011;10411;48.148;7.704;2022-08-03T10:19:44;22.13;;;20.60;;
20505;SDS011;10411;48.148;7.704;2022-08-03T10:22:15;21.45;;;20.10;;
20505;SDS011;10411;48.148;7.704;2022-08-03T10:24:49;22.77;;;21.10;;
20505;SDS011;10411;48.148;7.704;2022-08-03T10:27:18;22.50;;;20.98;;
20505;SDS011;10411;48.148;7.704;2022-08-03T10:29:44;21.88;;;20.58;;
20505;SDS011;10411;48.148;7.704;2022-08-03T10:32:33;22.40;;;20.80;;
20505;SDS011;10411;48.148;7.704;2022-08-03T10:35:06;21.88;;;20.58;;
20505;SDS011;10411;48.148;7.704;2022-08-03T10:37:35;21.70;;;20.40;;
20505;SDS011;10411;48.148;7.704;2022-08-03T10:40:02;22.13;;;20.30;;
20505;SDS011;10411;48.148;7.704;2022-08-03T10:42:28;21.30;;;20.10;;
20505;SDS011;10411;48.148;7.704;2022-08-03T10:45:05;22.27;;;20.90;;
20505;SDS011;10411;48.148;7.704;2022-08-03T10:47:33;21.67;;;20.25;;
20505;SDS011;10411;48.148;7.704;2022-08-03T10:49:59;22.30;;;20.67;;
20505;SDS011;10411;48.148;7.704;2022-08-03T10:52:26;22.25;;;20.85;;
20505;SDS011;10411;48.148;7.704;2022-08-03T10:54:52;22.55;;;20.98;;
20505;SDS011;10411;48.148;7.704;2022-08-03T11:00:14;21.65;;;20.35;;
20505;SDS011;10411;48.148;7.704;2022-08-03T11:05:28;22.45;;;20.85;;
20505;SDS011;10411;48.148;7.704;2022-08-03T11:10:39;22.55;;;20.65;;
20505;SDS011;10411;48.148;7.704;2022-08-03T11:13:08;22.13;;;20.63;;
20505;SDS011;10411;48.148;7.704;2022-08-03T11:15:34;22.08;;;20.77;;
20505;SDS011;10411;48.148;7.704;2022-08-03T11:18:10;22.40;;;21.00;;
20505;SDS011;10411;48.148;7.704;2022-08-03T11:20:43;21.70;;;20.40;;
20505;SDS011;10411;48.148;7.704;2022-08-03T11:23:09;22.77;;;21.42;;
20505;SDS011;10411;48.148;7.704;2022-08-03T11:28:24;22.83;;;21.33;;
20505;SDS011;10411;48.148;7.704;2022-08-03T11:30:51;23.17;;;21.58;;
20505;SDS011;10411;48.148;7.704;2022-08-03T11:33:29;22.63;;;21.33;;
20505;SDS011;10411;48.148;7.704;2022-08-03T11:35:59;22.95;;;21.55;;
20505;SDS011;10411;48.148;7.704;2022-08-03T11:38:26;23.15;;;21.63;;
20505;SDS011;10411;48.148;7.704;2022-08-03T11:40:52;22.90;;;21.40;;
20505;SDS011;10411;48.148;7.704;2022-08-03T11:46:00;22.75;;;21.35;;
20505;SDS011;10411;48.148;7.704;2022-08-03T11:48:32;23.33;;;21.52;;
20505;SDS011;10411;48.148;7.704;2022-08-03T11:50:59;22.23;;;20.73;;
20505;SDS011;10411;48.148;7.704;2022-08-03T11:53:26;22.80;;;21.13;;
20505;SDS011;10411;48.148;7.704;2022-08-03T11:55:52;22.75;;;21.02;;
20505;SDS011;10411;48.148;7.704;2022-08-03T11:58:21;22.23;;;20.77;;
20505;SDS011;10411;48.148;7.704;2022-08-03T12:00:48;22.55;;;21.05;;
20505;SDS011;10411;48.148;7.704;2022-08-03T12:03:18;22.13;;;20.83;;
20505;SDS011;10411;48.148;7.704;2022-08-03T12:05:51;22.33;;;20.92;;
20505;SDS011;10411;48.148;7.704;2022-08-03T12:10:52;22.80;;;21.40;;
20505;SDS011;10411;48.148;7.704;2022-08-03T12:13:19;23.38;;;21.60;;
20505;SDS011;10411;48.148;7.704;2022-08-03T12:15:55;22.88;;;21.48;;
20505;SDS011;10411;48.148;7.704;2022-08-03T12:18:21;23.27;;;21.70;;
20505;SDS011;10411;48.148;7.704;2022-08-03T12:20:49;21.92;;;20.52;;
20505;SDS011;10411;48.148;7.704;2022-08-03T12:23:15;22.88;;;21.30;;
20505;SDS011;10411;48.148;7.704;2022-08-03T12:25:41;22.33;;;20.92;;
20505;SDS011;10411;48.148;7.704;2022-08-03T12:30:49;22.67;;;21.13;;
20505;SDS011;10411;48.148;7.704;2022-08-03T12:33:23;22.98;;;21.30;;
20505;SDS011;10411;48.148;7.704;2022-08-03T12:35:51;22.33;;;20.73;;
20505;SDS011;10411;48.148;7.704;2022-08-03T12:38:27;22.35;;;20.77;;
20505;SDS011;10411;48.148;7.704;2022-08-03T12:40:54;22.92;;;21.50;;
20505;SDS011;10411;48.148;7.704;2022-08-03T12:43:20;22.92;;;21.50;;
20505;SDS011;10411;48.148;7.704;2022-08-03T12:45:46;23.08;;;21.60;;
20505;SDS011;10411;48.148;7.704;2022-08-03T12:48:12;22.92;;;21.38;;
20505;SDS011;10411;48.148;7.704;2022-08-03T12:50:38;22.83;;;21.42;;
20505;SDS011;10411;48.148;7.704;2022-08-03T12:53:06;22.42;;;21.10;;
20505;SDS011;10411;48.148;7.704;2022-08-03T12:55:33;22.88;;;21.00;;
20505;SDS011;10411;48.148;7.704;2022-08-03T12:57:59;21.98;;;20.58;;
20505;SDS011;10411;48.148;7.704;2022-08-03T13:00:25;22.13;;;20.52;;
20505;SDS011;10411;48.148;7.704;2022-08-03T13:02:58;23.15;;;21.30;;
20505;SDS011;10411;48.148;7.704;2022-08-03T13:05:25;22.90;;;21.20;;
20505;SDS011;10411;48.148;7.704;2022-08-03T13:07:51;21.50;;;20.13;;
20505;SDS011;10411;48.148;7.704;2022-08-03T13:10:27;21.98;;;20.67;;
20505;SDS011;10411;48.148;7.704;2022-08-03T13:12:53;21.50;;;20.10;;
20505;SDS011;10411;48.148;7.704;2022-08-03T13:15:22;20.95;;;19.75;;
20505;SDS011;10411;48.148;7.704;2022-08-03T13:17:50;21.17;;;19.98;;
20505;SDS011;10411;48.148;7.704;2022-08-03T13:20:16;22.15;;;20.95;;
20505;SDS011;10411;48.148;7.704;2022-08-03T13:22:45;21.33;;;20.02;;
20505;SDS011;10411;48.148;7.704;2022-08-03T13:25:11;21.80;;;20.25;;
20505;SDS011;10411;48.148;7.704;2022-08-03T13:27:37;24.35;;;22.77;;
20505;SDS011;10411;48.148;7.704;2022-08-03T13:30:04;22.15;;;20.70;;
20505;SDS011;10411;48.148;7.704;2022-08-03T13:32:30;21.55;;;20.15;;
20505;SDS011;10411;48.148;7.704;2022-08-03T13:34:56;21.00;;;19.35;;
20505;SDS011;10411;48.148;7.704;2022-08-03T13:37:22;20.50;;;19.40;;
20505;SDS011;10411;48.148;7.704;2022-08-03T13:39:48;20.83;;;19.50;;
20505;SDS011;10411;48.148;7.704;2022-08-03T13:42:14;20.50;;;19.20;;
20505;SDS011;10411;48.148;7.704;2022-08-03T13:44:40;20.83;;;19.42;;
20505;SDS011;10411;48.148;7.704;2022-08-03T13:47:07;19.95;;;18.65;;
20505;SDS011;10411;48.148;7.704;2022-08-03T13:49:33;20.30;;;19.20;;
20505;SDS011;10411;48.148;7.704;2022-08-03T13:51:59;21.05;;;19.55;;
20505;SDS011;10411;48.148;7.704;2022-08-03T13:54:26;20.42;;;19.25;;
20505;SDS011;10411;48.148;7.704;2022-08-03T13:56:52;21.20;;;19.80;;
20505;SDS011;10411;48.148;7.704;2022-08-03T13:59:18;21.63;;;19.77;;
20505;SDS011;10411;48.148;7.704;2022-08-03T14:01:45;21.30;;;19.85;;
20505;SDS011;10411;48.148;7.704;2022-08-03T14:04:10;20.95;;;19.75;;
20505;SDS011;10411;48.148;7.704;2022-08-03T14:06:36;20.90;;;19.65;;
20505;SDS011;10411;48.148;7.704;2022-08-03T14:09:02;20.65;;;19.45;;
20505;SDS011;10411;48.148;7.704;2022-08-03T14:11:28;20.17;;;19.08;;
20505;SDS011;10411;48.148;7.704;2022-08-03T14:13:55;20.48;;;19.33;;
20505;SDS011;10411;48.148;7.704;2022-08-03T14:16:21;21.20;;;20.00;;
20505;SDS011;10411;48.148;7.704;2022-08-03T14:18:47;21.10;;;19.70;;
20505;SDS011;10411;48.148;7.704;2022-08-03T14:21:13;20.27;;;18.98;;
20505;SDS011;10411;48.148;7.704;2022-08-03T14:23:39;20.27;;;19.08;;
20505;SDS011;10411;48.148;7.704;2022-08-03T14:26:05;20.77;;;19.27;;
20505;SDS011;10411;48.148;7.704;2022-08-03T14:28:31;19.90;;;18.70;;
20505;SDS011;10411;48.148;7.704;2022-08-03T14:30:58;20.77;;;19.60;;
20505;SDS011;10411;48.148;7.704;2022-08-03T14:33:24;19.88;;;18.77;;
20505;SDS011;10411;48.148;7.704;2022-08-03T14:35:52;19.90;;;18.80;;
20505;SDS011;10411;48.148;7.704;2022-08-03T14:38:18;19.77;;;18.67;;
20505;SDS011;10411;48.148;7.704;2022-08-03T14:40:44;20.33;;;19.13;;
20505;SDS011;10411;48.148;7.704;2022-08-03T14:43:10;21.05;;;19.67;;
20505;SDS011;10411;48.148;7.704;2022-08-03T14:45:37;20.83;;;19.45;;
20505;SDS011;10411;48.148;7.704;2022-08-03T14:48:03;20.38;;;19.27;;
20505;SDS011;10411;48.148;7.704;2022-08-03T14:50:29;20.63;;;19.33;;
20505;SDS011;10411;48.148;7.704;2022-08-03T14:52:55;20.63;;;19.52;;
20505;SDS011;10411;48.148;7.704;2022-08-03T14:55:21;20.65;;;19.55;;
20505;SDS011;10411;48.148;7.704;2022-08-03T14:57:47;20.90;;;19.70;;
20505;SDS011;10411;48.148;7.704;2022-08-03T15:00:13;20.27;;;19.08;;
20505;SDS011;10411;48.148;7.704;2022-08-03T15:02:39;20.40;;;19.10;;
20505;SDS011;10411;48.148;7.704;2022-08-03T15:05:05;20.08;;;18.98;;
20505;SDS011;10411;48.148;7.704;2022-08-03T15:07:32;20.40;;;19.10;;
20505;SDS011;10411;48.148;7.704;2022-08-03T15:09:57;20.60;;;19.40;;
20505;SDS011;10411;48.148;7.704;2022-08-03T15:12:24;20.10;;;18.95;;